createdAt,value
2022-10-19T00:01:51.989Z,13.25
2022-10-19T00:04:19.060Z,12.20
2022-10-19T00:06:47.023Z,12.07
2022-10-19T00:11:44.903Z,14.10
2022-10-19T00:14:14.773Z,13.43
2022-10-19T00:16:42.971Z,12.85
2022-10-19T00:19:14.423Z,12.68
2022-10-19T00:21:41.652Z,12.48
2022-10-19T00:24:08.519Z,13.13
2022-10-19T00:26:35.408Z,12.13
2022-10-19T00:29:02.627Z,13.18
2022-10-19T00:31:29.367Z,12.63
2022-10-19T00:33:57.806Z,12.23
2022-10-19T00:36:36.081Z,11.15
2022-10-19T00:39:04.685Z,12.20
2022-10-19T00:41:33.877Z,12.40
2022-10-19T00:44:03.302Z,12.10
2022-10-19T00:46:33.224Z,12.02
2022-10-19T00:49:10.911Z,13.20
2022-10-19T00:51:41.274Z,12.65
2022-10-19T00:54:09.270Z,12.65
2022-10-19T00:59:05.951Z,11.57
2022-10-19T01:01:34.129Z,12.57
2022-10-19T01:04:02.054Z,10.98
2022-10-19T01:06:28.945Z,11.50
2022-10-19T01:08:55.579Z,8.18
2022-10-19T01:11:54.740Z,12.02
2022-10-19T01:14:27.227Z,11.77
2022-10-19T01:17:26.701Z,11.27
2022-10-19T01:20:28.216Z,10.52
2022-10-19T01:23:29.034Z,11.38
2022-10-19T01:26:31.042Z,11.35
2022-10-19T01:29:06.704Z,10.48
2022-10-19T01:31:35.969Z,11.40
2022-10-19T01:34:21.029Z,11.13
2022-10-19T01:37:15.550Z,10.77
2022-10-19T01:39:52.428Z,10.85
2022-10-19T01:42:49.699Z,10.50
2022-10-19T01:45:27.830Z,10.07
2022-10-19T01:48:28.919Z,10.77
2022-10-19T01:51:09.660Z,11.40
2022-10-19T01:53:41.963Z,11.68
2022-10-19T01:56:09.435Z,10.88
2022-10-19T01:58:38.875Z,9.93
2022-10-19T02:03:57.795Z,9.68
2022-10-19T02:06:24.528Z,10.23
2022-10-19T02:08:53.143Z,10.45
2022-10-19T02:11:22.043Z,10.13
2022-10-19T02:13:54.538Z,12.00
2022-10-19T02:16:27.599Z,10.05
2022-10-19T02:18:56.493Z,9.63
2022-10-19T02:21:23.859Z,10.20
2022-10-19T02:23:53.400Z,9.98
2022-10-19T02:26:21.852Z,10.60
2022-10-19T02:28:48.978Z,10.45
2022-10-19T02:31:15.952Z,9.93
2022-10-19T02:33:42.829Z,9.85
2022-10-19T02:36:09.520Z,17.70
2022-10-19T02:38:36.504Z,13.10
2022-10-19T02:41:06.423Z,9.93
2022-10-19T02:43:37.177Z,9.27
2022-10-19T02:46:16.391Z,9.65
2022-10-19T02:48:44.375Z,8.95
2022-10-19T02:53:59.047Z,9.95
2022-10-19T02:56:28.213Z,9.88
2022-10-19T02:58:55.219Z,9.02
2022-10-19T03:01:21.838Z,8.77
2022-10-19T03:03:48.506Z,8.68
2022-10-19T03:06:15.208Z,9.13
2022-10-19T03:08:42.251Z,8.15
2022-10-19T03:11:09.115Z,8.67
2022-10-19T03:13:35.764Z,9.38
2022-10-19T03:16:10.790Z,9.07
2022-10-19T03:18:37.451Z,9.20
2022-10-19T03:21:09.514Z,9.05
2022-10-19T03:23:36.718Z,9.57
2022-10-19T03:26:05.619Z,8.40
2022-10-19T03:28:34.646Z,8.60
2022-10-19T03:31:01.742Z,8.00
2022-10-19T03:33:28.476Z,8.20
2022-10-19T03:36:24.619Z,8.70
2022-10-19T03:38:52.316Z,8.80
2022-10-19T03:41:20.682Z,8.52
2022-10-19T03:43:47.712Z,8.57
2022-10-19T03:46:15.053Z,7.57
2022-10-19T03:48:42.377Z,7.97
2022-10-19T03:51:13.349Z,7.78
2022-10-19T03:53:40.791Z,8.20
2022-10-19T03:56:11.560Z,9.00
2022-10-19T03:58:40.389Z,8.90
2022-10-19T04:01:15.211Z,9.20
2022-10-19T04:03:42.339Z,8.90
2022-10-19T04:06:16.913Z,8.63
2022-10-19T04:08:48.836Z,8.90
2022-10-19T04:11:19.774Z,8.15
2022-10-19T04:13:49.618Z,8.57
2022-10-19T04:16:16.437Z,8.15
2022-10-19T04:18:43.376Z,8.82
2022-10-19T04:21:21.178Z,9.18
2022-10-19T04:26:14.652Z,8.73
2022-10-19T04:28:41.385Z,8.55
2022-10-19T04:31:08.185Z,8.05
2022-10-19T04:33:35.302Z,8.50
2022-10-19T04:36:07.380Z,8.17
2022-10-19T04:38:35.188Z,8.45
2022-10-19T04:41:10.098Z,10.60
2022-10-19T04:43:37.695Z,11.27
2022-10-19T04:46:10.590Z,12.50
2022-10-19T04:48:38.310Z,9.20
2022-10-19T04:51:05.353Z,9.32
2022-10-19T04:53:33.567Z,9.23
2022-10-19T04:56:04.504Z,8.23
2022-10-19T04:58:31.529Z,8.50
2022-10-19T05:00:58.277Z,8.37
2022-10-19T05:03:25.058Z,8.20
2022-10-19T05:05:51.622Z,7.75
2022-10-19T05:08:18.486Z,8.68
2022-10-19T05:10:47.656Z,9.48
2022-10-19T05:13:15.033Z,28.33
2022-10-19T05:15:42.079Z,12.23
2022-10-19T05:18:09.276Z,8.23
2022-10-19T05:20:35.951Z,8.27
2022-10-19T05:23:06.302Z,14.57
2022-10-19T05:25:34.083Z,13.52
2022-10-19T05:28:00.881Z,9.07
2022-10-19T05:30:27.562Z,8.43
2022-10-19T05:32:54.264Z,8.20
2022-10-19T05:35:22.697Z,8.85
2022-10-19T05:37:54.487Z,9.00
2022-10-19T05:40:21.293Z,9.15
2022-10-19T05:42:47.956Z,8.00
2022-10-19T05:45:14.634Z,7.53
2022-10-19T05:47:41.298Z,7.90
2022-10-19T05:50:08.363Z,8.15
2022-10-19T05:52:36.455Z,7.57
2022-10-19T05:55:03.592Z,7.97
2022-10-19T05:57:33.215Z,8.03
2022-10-19T06:00:00.114Z,8.57
2022-10-19T06:02:26.818Z,8.90
2022-10-19T06:04:53.511Z,8.50
2022-10-19T06:07:20.099Z,8.73
2022-10-19T06:09:47.909Z,7.93
2022-10-19T06:12:16.226Z,8.70
2022-10-19T06:14:43.381Z,9.35
2022-10-19T06:17:10.799Z,8.75
2022-10-19T06:19:37.535Z,8.43
2022-10-19T06:22:04.131Z,8.82
2022-10-19T06:24:30.829Z,8.45
2022-10-19T06:26:57.452Z,9.25
2022-10-19T06:44:00.793Z,7.75
2022-10-19T06:46:27.485Z,7.93
2022-10-19T06:48:56.398Z,7.57
2022-10-19T06:51:25.533Z,7.63
2022-10-19T06:53:56.607Z,8.80
2022-10-19T06:56:24.872Z,9.02
2022-10-19T06:58:52.328Z,8.68
2022-10-19T07:01:19.097Z,12.93
2022-10-19T07:03:45.841Z,10.35
2022-10-19T07:06:13.442Z,12.35
2022-10-19T07:08:41.805Z,8.52
2022-10-19T07:11:10.697Z,7.82
2022-10-19T07:13:38.191Z,8.40
2022-10-19T07:16:15.900Z,7.50
2022-10-19T07:18:46.628Z,6.97
2022-10-19T07:21:16.178Z,7.40
2022-10-19T07:23:45.129Z,6.80
2022-10-19T07:26:15.633Z,6.80
2022-10-19T07:28:47.442Z,7.85
2022-10-19T07:31:18.002Z,6.85
2022-10-19T07:33:45.139Z,6.93
2022-10-19T07:36:13.668Z,6.50
2022-10-19T07:38:40.962Z,5.93
2022-10-19T07:41:14.172Z,10.43
2022-10-19T07:43:42.564Z,8.18
2022-10-19T07:46:12.804Z,8.57
2022-10-19T07:48:39.733Z,6.45
2022-10-19T07:51:08.200Z,5.20
2022-10-19T07:53:36.031Z,5.22
2022-10-19T07:58:32.999Z,5.38
2022-10-19T08:01:04.388Z,5.22
2022-10-19T08:04:31.283Z,5.68
2022-10-19T08:06:19.225Z,5.37
2022-10-19T08:08:47.109Z,5.88
2022-10-19T08:13:42.493Z,5.38
2022-10-19T08:16:30.077Z,5.55
2022-10-19T08:21:26.100Z,4.68
2022-10-19T08:23:52.772Z,5.32
2022-10-19T08:26:19.585Z,4.65
2022-10-19T08:28:49.249Z,5.32
2022-10-19T08:31:21.097Z,4.72
2022-10-19T08:33:50.454Z,5.20
2022-10-19T08:36:17.391Z,6.93
2022-10-19T08:38:45.460Z,6.27
2022-10-19T08:44:59.871Z,4.57
2022-10-19T08:47:38.749Z,4.65
2022-10-19T08:50:26.658Z,5.00
2022-10-19T08:53:03.827Z,4.50
2022-10-19T08:56:04.916Z,4.45
2022-10-19T08:58:36.540Z,5.00
2022-10-19T09:01:09.483Z,4.25
2022-10-19T09:04:01.841Z,4.88
2022-10-19T09:06:28.666Z,4.63
2022-10-19T09:08:57.407Z,4.43
2022-10-19T09:11:29.549Z,3.70
2022-10-19T09:14:06.258Z,3.63
2022-10-19T09:16:35.099Z,3.67
2022-10-19T09:19:03.146Z,3.40
2022-10-19T09:21:46.105Z,3.47
2022-10-19T09:24:29.978Z,3.10
2022-10-19T09:27:00.026Z,3.83
2022-10-19T09:29:50.463Z,2.50
2022-10-19T09:32:24.503Z,2.95
2022-10-19T09:34:58.911Z,3.00
2022-10-19T09:37:26.889Z,2.60
2022-10-19T09:39:55.669Z,2.45
2022-10-19T09:42:26.482Z,2.55
2022-10-19T09:44:55.141Z,3.13
2022-10-19T09:47:42.561Z,2.25
2022-10-19T09:50:18.002Z,2.03
2022-10-19T09:52:51.466Z,3.13
2022-10-19T09:55:40.935Z,2.40
2022-10-19T09:58:13.686Z,2.60
2022-10-19T10:00:46.810Z,2.22
2022-10-19T10:03:30.922Z,2.30
2022-10-19T10:06:24.091Z,2.90
2022-10-19T10:08:58.182Z,2.50
2022-10-19T10:11:28.497Z,2.17
2022-10-19T10:13:56.255Z,2.25
2022-10-19T10:16:29.384Z,2.30
2022-10-19T10:19:03.983Z,1.88
2022-10-19T10:21:34.986Z,2.08
2022-10-19T10:24:06.849Z,4.30
2022-10-19T10:26:40.215Z,3.28
2022-10-19T10:29:53.843Z,2.90
2022-10-19T10:32:21.520Z,4.97
2022-10-19T10:35:01.317Z,2.47
2022-10-19T10:37:44.640Z,2.00
2022-10-19T10:40:27.970Z,1.63
2022-10-19T10:42:57.958Z,1.95
2022-10-19T10:45:40.289Z,1.70
2022-10-19T10:48:29.087Z,1.85
2022-10-19T10:50:57.338Z,1.90
2022-10-19T10:53:38.147Z,1.80
2022-10-19T10:56:07.176Z,1.90
2022-10-19T10:59:14.409Z,2.00
2022-10-19T11:01:47.803Z,2.97
2022-10-19T11:04:24.693Z,7.28
2022-10-19T11:06:59.336Z,2.10
2022-10-19T11:09:38.640Z,2.28
2022-10-19T11:12:10.303Z,1.80
2022-10-19T11:14:51.364Z,1.63
2022-10-19T11:17:40.041Z,1.48
2022-10-19T11:20:15.058Z,3.05
2022-10-19T11:23:02.285Z,2.08
2022-10-19T11:28:29.378Z,1.90
2022-10-19T11:31:15.831Z,1.33
2022-10-19T11:34:27.068Z,3.03
2022-10-19T11:37:06.146Z,2.35
2022-10-19T11:40:06.794Z,1.70
2022-10-19T11:42:57.203Z,1.80
2022-10-19T11:45:41.191Z,1.85
2022-10-19T11:48:40.414Z,1.65
2022-10-19T11:51:22.285Z,1.42
2022-10-19T11:53:48.936Z,1.55
2022-10-19T11:56:39.098Z,1.38
2022-10-19T11:59:20.622Z,1.33
2022-10-19T12:01:50.357Z,1.70
2022-10-19T12:04:44.981Z,2.08
2022-10-19T12:07:27.928Z,1.35
2022-10-19T12:10:17.087Z,1.27
2022-10-19T12:12:47.866Z,1.67
2022-10-19T12:15:53.968Z,1.27
2022-10-19T12:18:41.918Z,1.10
2022-10-19T12:21:31.226Z,1.40
2022-10-19T12:23:59.390Z,1.10
2022-10-19T12:26:30.567Z,1.27
2022-10-19T12:29:00.681Z,1.20
2022-10-19T12:31:28.938Z,1.48
2022-10-19T12:33:58.709Z,1.45
2022-10-19T12:37:01.159Z,1.85
2022-10-19T12:45:18.866Z,1.40
2022-10-19T12:48:13.379Z,1.70
2022-10-19T12:53:49.365Z,1.20
2022-10-19T12:58:47.669Z,2.70
2022-10-19T13:01:23.344Z,1.77
2022-10-19T13:04:07.924Z,1.60
2022-10-19T13:06:37.930Z,3.35
2022-10-19T13:09:09.672Z,1.73
2022-10-19T13:11:38.449Z,1.80
2022-10-19T13:14:20.280Z,2.35
2022-10-19T13:17:03.572Z,1.73
2022-10-19T13:19:30.217Z,1.70
2022-10-19T13:22:27.677Z,1.43
2022-10-19T13:25:32.500Z,1.67
2022-10-19T13:28:09.417Z,2.10
2022-10-19T13:30:36.099Z,1.88
2022-10-19T13:33:29.589Z,2.13
2022-10-19T13:35:59.019Z,2.15
2022-10-19T13:41:27.932Z,2.58
2022-10-19T13:44:03.535Z,3.33
2022-10-19T13:46:30.141Z,2.70
2022-10-19T13:49:02.632Z,1.90
2022-10-19T13:51:56.245Z,1.70
2022-10-19T13:54:49.447Z,2.00
2022-10-19T13:57:41.439Z,2.78
2022-10-19T14:00:20.517Z,4.00
2022-10-19T14:03:26.665Z,2.53
2022-10-19T14:05:56.668Z,2.80
2022-10-19T14:08:56.744Z,2.72
2022-10-19T14:11:36.699Z,2.60
2022-10-19T14:14:09.450Z,3.03
2022-10-19T14:16:46.087Z,2.83
2022-10-19T14:19:14.740Z,2.70
2022-10-19T14:21:41.448Z,2.78
2022-10-19T14:24:39.665Z,6.43
2022-10-19T14:27:07.945Z,2.92
2022-10-19T14:29:48.276Z,2.60
2022-10-19T14:32:15.647Z,4.00
2022-10-19T14:34:43.968Z,4.15
2022-10-19T14:37:18.376Z,3.15
2022-10-19T14:40:03.627Z,2.63
2022-10-19T14:42:45.477Z,2.72
2022-10-19T14:45:27.581Z,2.92
2022-10-19T14:47:55.632Z,3.70
2022-10-19T14:50:28.088Z,6.18
2022-10-19T14:53:03.486Z,4.95
2022-10-19T14:55:37.827Z,3.40
2022-10-19T14:58:09.645Z,3.03
2022-10-19T15:00:36.485Z,2.40
2022-10-19T15:03:08.194Z,5.13
2022-10-19T15:05:37.899Z,2.90
2022-10-19T15:08:17.908Z,2.25
2022-10-19T15:10:47.124Z,2.33
2022-10-19T15:13:29.049Z,2.53
2022-10-19T15:15:56.000Z,2.90
2022-10-19T15:18:47.592Z,2.13
2022-10-19T15:21:18.783Z,2.17
2022-10-19T15:23:50.672Z,2.53
2022-10-19T15:26:26.050Z,2.20
2022-10-19T15:28:54.074Z,2.20
2022-10-19T15:31:26.101Z,2.53
2022-10-19T15:33:56.018Z,3.00
2022-10-19T15:36:23.863Z,2.45
2022-10-19T15:39:17.688Z,2.08
2022-10-19T15:41:47.287Z,2.42
2022-10-19T15:44:43.537Z,4.83
2022-10-19T15:47:15.988Z,2.77
2022-10-19T15:49:42.642Z,2.60
2022-10-19T15:52:15.972Z,2.23
2022-10-19T15:54:43.151Z,2.42
2022-10-19T15:57:42.408Z,3.55
2022-10-19T16:00:14.967Z,2.50
2022-10-19T16:02:41.692Z,4.70
2022-10-19T16:05:08.870Z,3.33
2022-10-19T16:07:38.761Z,3.80
2022-10-19T16:10:07.213Z,2.63
2022-10-19T16:12:33.928Z,2.33
2022-10-19T16:15:00.684Z,2.20
2022-10-19T16:17:27.563Z,2.53
2022-10-19T16:19:54.265Z,2.37
2022-10-19T16:22:21.139Z,2.35
2022-10-19T16:24:47.784Z,2.60
2022-10-19T16:27:16.346Z,9.80
2022-10-19T16:29:44.487Z,2.45
2022-10-19T16:32:11.405Z,2.22
2022-10-19T16:34:38.254Z,2.50
2022-10-19T16:37:06.938Z,3.93
2022-10-19T16:39:34.504Z,3.00
2022-10-19T16:42:01.420Z,2.53
2022-10-19T16:44:28.117Z,2.17
2022-10-19T16:46:57.048Z,3.30
2022-10-19T16:49:23.941Z,2.53
2022-10-19T16:51:53.363Z,2.37
2022-10-19T16:54:23.315Z,2.58
2022-10-19T16:56:49.997Z,2.35
2022-10-19T16:59:18.522Z,2.40
2022-10-19T17:01:46.272Z,11.90
2022-10-19T17:06:40.886Z,2.70
2022-10-19T17:09:40.869Z,2.40
2022-10-19T17:11:54.870Z,2.67
2022-10-19T17:14:21.471Z,2.92
2022-10-19T17:16:48.169Z,2.45
2022-10-19T17:19:14.791Z,55.97
2022-10-19T17:21:42.556Z,3.92
2022-10-19T17:24:18.465Z,3.28
2022-10-19T17:26:49.064Z,2.75
2022-10-19T17:29:15.677Z,3.88
2022-10-19T17:31:42.719Z,2.88
2022-10-19T17:34:10.335Z,3.03
2022-10-19T17:39:29.109Z,4.70
2022-10-19T17:42:01.829Z,3.67
2022-10-19T17:44:30.620Z,3.83
2022-10-19T17:46:57.765Z,4.53
2022-10-19T17:49:24.424Z,3.10
2022-10-19T17:51:53.320Z,3.58
2022-10-19T17:58:40.397Z,3.67
2022-10-19T18:01:08.223Z,3.33
2022-10-19T18:06:09.727Z,4.70
2022-10-19T18:08:40.005Z,3.20
2022-10-19T18:11:12.554Z,3.92
2022-10-19T18:13:39.944Z,4.60
2022-10-19T18:16:09.494Z,2.80
2022-10-19T18:18:38.182Z,3.20
2022-10-19T18:21:12.075Z,3.15
2022-10-19T18:23:38.799Z,3.05
2022-10-19T18:26:10.668Z,3.92
2022-10-19T18:28:38.275Z,3.00
2022-10-19T18:31:18.071Z,4.03
2022-10-19T18:33:44.894Z,2.58
2022-10-19T18:36:11.598Z,3.97
2022-10-19T18:38:39.278Z,3.15
2022-10-19T18:41:08.649Z,3.03
2022-10-19T18:51:41.837Z,2.92
2022-10-19T18:54:08.445Z,3.13
2022-10-19T18:56:36.663Z,3.10
2022-10-19T19:09:46.108Z,4.95
2022-10-19T19:12:16.188Z,5.75
2022-10-19T19:14:44.100Z,5.20
2022-10-19T19:19:37.286Z,3.45
2022-10-19T19:22:08.613Z,3.08
2022-10-19T19:24:35.792Z,3.75
2022-10-19T19:27:02.408Z,3.53
2022-10-19T19:29:32.240Z,5.40
2022-10-19T19:31:59.075Z,3.22
2022-10-19T19:34:25.823Z,4.38
2022-10-19T19:36:52.549Z,3.40
2022-10-19T19:39:20.858Z,7.10
2022-10-19T19:41:49.435Z,3.78
2022-10-19T19:44:17.716Z,3.10
2022-10-19T19:46:45.283Z,4.15
2022-10-19T19:49:14.241Z,6.70
2022-10-19T19:51:40.765Z,5.03
2022-10-19T19:54:07.639Z,3.55
2022-10-19T19:56:34.318Z,3.22
2022-10-19T19:59:03.884Z,3.92
2022-10-19T20:01:31.591Z,4.03
2022-10-19T20:03:59.238Z,3.53
2022-10-19T20:06:26.228Z,3.65
2022-10-19T20:08:53.462Z,3.43
2022-10-19T20:11:21.161Z,3.87
2022-10-19T20:13:47.835Z,4.22
2022-10-19T20:16:22.802Z,2.70
2022-10-19T20:18:55.725Z,3.00
2022-10-19T20:21:26.663Z,5.00
2022-10-19T20:23:53.358Z,3.50
2022-10-19T20:26:22.107Z,3.72
2022-10-19T20:28:52.401Z,4.63
2022-10-19T20:31:19.916Z,3.22
2022-10-19T20:33:47.961Z,4.60
2022-10-19T20:36:20.147Z,3.92
2022-10-19T20:38:50.163Z,3.30
2022-10-19T20:41:17.574Z,3.85
2022-10-19T20:43:45.279Z,4.57
2022-10-19T20:46:14.989Z,4.07
2022-10-19T20:48:46.425Z,4.07
2022-10-19T20:51:17.862Z,3.58
2022-10-19T20:53:48.830Z,3.20
2022-10-19T20:56:18.143Z,3.80
2022-10-19T20:58:45.438Z,3.30
2022-10-19T21:01:17.782Z,3.80
2022-10-19T21:03:52.836Z,3.70
2022-10-19T21:06:20.484Z,3.90
2022-10-19T21:08:50.222Z,3.88
2022-10-19T21:11:19.991Z,3.08
2022-10-19T21:13:47.651Z,3.55
2022-10-19T21:16:16.582Z,3.42
2022-10-19T21:18:44.663Z,4.00
2022-10-19T21:21:13.120Z,3.38
2022-10-19T21:23:39.661Z,4.00
2022-10-19T21:26:09.407Z,3.50
2022-10-19T21:28:39.221Z,4.22
2022-10-19T21:31:08.935Z,3.58
2022-10-19T21:33:35.999Z,3.40
2022-10-19T21:36:09.957Z,4.27
2022-10-19T21:38:37.915Z,4.45
2022-10-19T21:43:35.328Z,3.85
2022-10-19T21:46:06.701Z,4.32
2022-10-19T21:48:35.269Z,5.18
2022-10-19T21:51:19.047Z,4.55
2022-10-19T21:53:46.869Z,4.72
2022-10-19T21:56:15.822Z,4.20
2022-10-19T21:58:47.075Z,4.28
2022-10-19T22:01:14.564Z,4.72
2022-10-19T22:03:41.200Z,4.60
2022-10-19T22:06:07.941Z,4.85
2022-10-19T22:08:37.873Z,4.50
2022-10-19T22:11:12.651Z,5.50
2022-10-19T22:13:39.294Z,7.55
2022-10-19T22:16:08.430Z,5.55
2022-10-19T22:18:36.387Z,4.90
2022-10-19T22:23:34.280Z,5.07
2022-10-19T22:26:01.036Z,5.78
2022-10-19T22:28:28.113Z,4.88
2022-10-19T22:30:56.003Z,5.83
2022-10-19T22:35:54.395Z,5.60
2022-10-19T22:38:23.911Z,5.18
2022-10-19T22:40:50.409Z,6.45
2022-10-19T22:43:17.016Z,6.13
2022-10-19T22:45:47.773Z,5.43
2022-10-19T22:48:15.349Z,9.45
2022-10-19T22:50:41.933Z,8.48
2022-10-19T22:53:08.651Z,7.25
2022-10-19T22:55:35.419Z,7.22
2022-10-19T22:58:02.242Z,7.80
2022-10-19T23:00:30.122Z,6.18
2022-10-19T23:02:56.674Z,6.65
2022-10-19T23:05:23.604Z,6.70
2022-10-19T23:07:50.113Z,7.90
2022-10-19T23:10:19.697Z,7.28
2022-10-19T23:12:53.355Z,8.00
2022-10-19T23:15:21.423Z,8.38
2022-10-19T23:17:51.113Z,7.72
2022-10-19T23:20:17.605Z,8.60
2022-10-19T23:22:44.134Z,8.27
2022-10-19T23:25:11.637Z,7.93
2022-10-19T23:27:38.401Z,8.55
2022-10-19T23:30:05.679Z,7.53
2022-10-19T23:32:32.357Z,7.30
2022-10-19T23:35:01.493Z,7.28
2022-10-19T23:37:36.953Z,6.65
2022-10-19T23:40:04.506Z,6.93
2022-10-19T23:42:31.054Z,7.30
2022-10-19T23:44:57.583Z,7.50
2022-10-19T23:47:24.414Z,8.00
2022-10-19T23:49:50.929Z,8.90
2022-10-19T23:52:18.626Z,8.82
2022-10-19T23:54:45.125Z,8.80
